createdAt,value
2023-01-08T00:03:03.818Z,45.75
2023-01-08T00:08:11.042Z,40.67
2023-01-08T00:13:19.579Z,44.33
2023-01-08T00:18:27.705Z,48.10
2023-01-08T00:23:35.189Z,41.45
2023-01-08T00:28:44.227Z,42.50
2023-01-08T00:33:51.223Z,41.88
2023-01-08T00:38:58.484Z,38.15
2023-01-08T00:44:07.377Z,45.72
2023-01-08T00:49:14.016Z,36.20
2023-01-08T00:54:20.904Z,36.35
2023-01-08T00:59:29.411Z,34.53
2023-01-08T01:04:37.751Z,43.45
2023-01-08T01:09:45.112Z,40.15
2023-01-08T01:14:52.977Z,38.10
2023-01-08T01:19:59.445Z,33.35
2023-01-08T01:25:07.052Z,35.53
2023-01-08T01:30:15.683Z,31.65
2023-01-08T01:35:22.104Z,36.70
2023-01-08T01:40:28.898Z,39.83
2023-01-08T01:45:37.396Z,35.80
2023-01-08T01:50:48.812Z,34.55
2023-01-08T01:55:55.965Z,33.88
2023-01-08T02:01:08.360Z,33.72
2023-01-08T02:06:35.070Z,32.83
2023-01-08T02:12:10.816Z,33.42
2023-01-08T02:17:25.871Z,31.40
2023-01-08T02:22:49.675Z,29.75
2023-01-08T02:28:02.555Z,29.95
2023-01-08T02:33:09.701Z,29.73
2023-01-08T02:38:19.636Z,34.10
2023-01-08T02:43:32.605Z,30.60
2023-01-08T02:48:43.428Z,28.45
2023-01-08T02:53:53.957Z,25.85
2023-01-08T02:59:03.817Z,27.42
2023-01-08T03:04:16.234Z,28.33
2023-01-08T03:09:23.008Z,25.13
2023-01-08T03:14:37.379Z,27.17
2023-01-08T03:19:50.723Z,23.92
2023-01-08T03:25:00.687Z,27.73
2023-01-08T03:30:11.996Z,28.30
2023-01-08T03:35:23.770Z,25.75
2023-01-08T03:40:36.628Z,25.30
2023-01-08T03:45:51.077Z,24.20
2023-01-08T03:50:57.641Z,23.23
2023-01-08T03:56:04.720Z,25.67
2023-01-08T04:01:12.846Z,24.38
2023-01-08T04:06:19.371Z,24.07
2023-01-08T04:11:26.034Z,22.73
2023-01-08T04:16:36.483Z,24.02
2023-01-08T04:21:44.051Z,21.85
2023-01-08T04:26:50.750Z,19.50
2023-01-08T04:31:58.845Z,22.17
2023-01-08T04:37:05.747Z,22.40
2023-01-08T04:42:13.105Z,21.70
2023-01-08T04:47:21.383Z,17.58
2023-01-08T04:52:29.679Z,19.23
2023-01-08T04:57:36.314Z,11.02
2023-01-08T05:02:44.409Z,20.00
2023-01-08T05:07:50.980Z,17.83
2023-01-08T05:13:01.356Z,20.80
2023-01-08T05:18:09.644Z,18.83
2023-01-08T05:23:16.212Z,21.47
2023-01-08T05:28:22.566Z,15.85
2023-01-08T05:33:30.652Z,16.95
2023-01-08T05:38:37.056Z,20.58
2023-01-08T05:43:43.536Z,17.50
2023-01-08T05:48:51.655Z,18.15
2023-01-08T05:53:58.313Z,19.47
2023-01-08T05:59:05.071Z,20.30
2023-01-08T06:04:13.429Z,17.85
2023-01-08T06:09:20.730Z,19.95
2023-01-08T06:14:27.163Z,16.77
2023-01-08T06:19:35.171Z,19.15
2023-01-08T06:24:42.048Z,17.33
2023-01-08T06:29:49.081Z,22.73
2023-01-08T06:34:57.026Z,16.00
2023-01-08T06:40:03.928Z,21.75
2023-01-08T06:45:12.373Z,18.00
2023-01-08T06:50:22.035Z,13.37
2023-01-08T06:55:29.634Z,15.27
2023-01-08T07:00:36.430Z,17.75
2023-01-08T07:05:44.621Z,15.98
2023-01-08T07:10:51.393Z,15.70
2023-01-08T07:15:58.101Z,18.35
2023-01-08T07:21:08.129Z,15.88
2023-01-08T07:26:15.993Z,14.68
2023-01-08T07:31:22.671Z,11.93
2023-01-08T07:36:30.763Z,13.18
2023-01-08T07:41:37.666Z,12.98
2023-01-08T07:46:44.520Z,15.48
2023-01-08T07:51:53.708Z,14.95
2023-01-08T08:02:07.005Z,11.80
2023-01-08T08:07:15.361Z,11.20
2023-01-08T08:12:22.018Z,12.37
2023-01-08T08:17:29.052Z,11.68
2023-01-08T08:22:37.305Z,15.88
2023-01-08T08:27:44.375Z,13.40
2023-01-08T08:32:51.038Z,11.15
2023-01-08T08:38:00.261Z,17.95
2023-01-08T08:43:07.367Z,13.77
2023-01-08T08:48:14.209Z,11.25
2023-01-08T08:53:22.517Z,13.27
2023-01-08T08:58:29.548Z,12.60
2023-01-08T09:03:42.639Z,12.27
2023-01-08T09:08:50.881Z,9.82
2023-01-08T09:13:57.946Z,10.35
2023-01-08T09:19:04.511Z,12.70
2023-01-08T09:24:13.576Z,13.52
2023-01-08T09:29:20.539Z,17.05
2023-01-08T09:34:27.163Z,13.90
2023-01-08T09:39:35.551Z,12.13
2023-01-08T09:44:47.362Z,11.32
2023-01-08T09:49:58.535Z,12.48
2023-01-08T09:55:15.126Z,9.95
2023-01-08T10:00:28.407Z,12.13
2023-01-08T10:05:35.239Z,9.90
2023-01-08T10:10:46.987Z,14.77
2023-01-08T10:15:54.796Z,12.90
2023-01-08T10:21:01.580Z,24.00
2023-01-08T10:26:10.130Z,12.15
2023-01-08T10:31:18.979Z,14.35
2023-01-08T10:36:29.115Z,12.48
2023-01-08T10:41:42.533Z,10.75
2023-01-08T10:46:52.260Z,11.77
2023-01-08T10:51:59.943Z,14.05
2023-01-08T10:57:27.473Z,11.52
2023-01-08T11:02:39.328Z,10.23
2023-01-08T11:07:53.680Z,10.07
2023-01-08T11:13:06.108Z,10.27
2023-01-08T11:18:22.459Z,11.38
2023-01-08T11:23:30.755Z,12.38
2023-01-08T11:28:56.765Z,12.60
2023-01-08T11:34:14.100Z,15.20
2023-01-08T11:39:21.453Z,13.60
2023-01-08T11:44:40.936Z,12.20
2023-01-08T11:50:12.724Z,11.05
2023-01-08T11:55:34.049Z,13.40
2023-01-08T12:01:13.324Z,11.02
2023-01-08T12:06:35.113Z,16.02
2023-01-08T12:11:53.802Z,13.85
2023-01-08T12:17:32.321Z,10.27
2023-01-08T12:22:51.511Z,13.02
2023-01-08T12:33:21.506Z,11.38
2023-01-08T12:38:34.323Z,12.13
2023-01-08T12:43:52.369Z,15.50
2023-01-08T12:49:02.670Z,16.27
2023-01-08T12:54:21.481Z,14.52
2023-01-08T12:59:40.715Z,20.92
2023-01-08T13:04:50.359Z,23.52
2023-01-08T13:10:00.695Z,22.90
2023-01-08T13:15:10.190Z,23.13
2023-01-08T13:20:25.760Z,23.52
2023-01-08T13:25:35.679Z,20.65
2023-01-08T13:30:46.855Z,17.58
2023-01-08T13:36:08.634Z,16.45
2023-01-08T13:41:28.604Z,21.13
2023-01-08T13:46:41.776Z,22.23
2023-01-08T13:51:51.363Z,24.33
2023-01-08T13:57:12.977Z,17.83
2023-01-08T14:02:31.563Z,24.25
2023-01-08T14:07:44.285Z,18.65
2023-01-08T14:12:52.824Z,17.55
2023-01-08T14:18:00.509Z,22.55
2023-01-08T14:23:19.195Z,21.38
2023-01-08T14:28:26.113Z,20.52
2023-01-08T14:33:37.168Z,21.17
2023-01-08T14:38:50.628Z,24.60
2023-01-08T14:43:57.951Z,22.77
2023-01-08T14:49:05.046Z,19.40
2023-01-08T14:54:23.634Z,26.95
2023-01-08T14:59:35.401Z,28.20
2023-01-08T15:04:42.431Z,23.90
2023-01-08T15:10:01.659Z,28.60
2023-01-08T15:15:14.194Z,28.42
2023-01-08T15:20:24.272Z,32.53
2023-01-08T15:25:33.469Z,24.75
2023-01-08T15:35:54.064Z,29.98
2023-01-08T15:41:02.567Z,29.92
2023-01-08T15:46:12.999Z,32.65
2023-01-08T15:51:20.032Z,32.22
2023-01-08T15:56:30.058Z,36.42
2023-01-08T16:06:47.366Z,39.40
2023-01-08T16:11:56.540Z,33.75
2023-01-08T16:22:13.551Z,41.92
2023-01-08T16:27:23.414Z,47.53
2023-01-08T16:32:30.925Z,38.35
2023-01-08T16:37:39.341Z,38.83
2023-01-08T16:42:49.713Z,34.10
2023-01-08T16:47:58.219Z,33.53
2023-01-08T16:53:05.882Z,33.75
2023-01-08T16:58:14.815Z,33.20
2023-01-08T17:03:22.261Z,33.67
2023-01-08T17:08:30.674Z,33.55
2023-01-08T17:13:40.617Z,34.08
2023-01-08T17:18:49.163Z,32.08
2023-01-08T17:29:18.788Z,33.65
2023-01-08T17:34:27.424Z,28.45
2023-01-08T17:39:36.467Z,37.90
2023-01-08T17:44:47.225Z,30.45
2023-01-08T17:49:59.184Z,33.67
2023-01-08T17:55:08.371Z,35.95
2023-01-08T18:00:21.690Z,25.33
2023-01-08T18:05:30.909Z,28.33
2023-01-08T18:10:40.767Z,33.45
2023-01-08T18:15:50.388Z,31.48
2023-01-08T18:20:57.958Z,29.45
2023-01-08T18:26:08.241Z,31.95
2023-01-08T18:31:18.506Z,35.50
2023-01-08T18:36:27.140Z,34.92
2023-01-08T18:41:51.609Z,28.02
2023-01-08T18:47:00.974Z,28.33
2023-01-08T18:52:12.974Z,34.10
2023-01-08T18:57:22.726Z,40.63
2023-01-08T19:02:34.615Z,48.80
2023-01-08T19:07:44.658Z,52.17
2023-01-08T19:12:52.949Z,50.25
2023-01-08T19:18:06.241Z,50.80
2023-01-08T19:23:20.095Z,56.97
2023-01-08T19:28:27.915Z,43.92
2023-01-08T19:33:37.719Z,46.90
2023-01-08T19:38:52.954Z,42.33
2023-01-08T19:44:03.148Z,49.78
2023-01-08T19:49:16.990Z,52.33
2023-01-08T19:54:26.774Z,41.25
2023-01-08T19:59:35.332Z,38.47
2023-01-08T20:04:47.520Z,50.78
2023-01-08T20:09:55.545Z,36.10
2023-01-08T20:15:03.199Z,31.57
2023-01-08T20:20:16.428Z,42.88
2023-01-08T20:25:25.666Z,48.25
2023-01-08T20:30:35.221Z,40.45
2023-01-08T20:35:44.447Z,38.90
2023-01-08T20:40:55.468Z,49.33
2023-01-08T20:46:03.134Z,51.55
2023-01-08T20:51:14.363Z,45.17
2023-01-08T20:56:24.911Z,40.47
2023-01-08T21:01:34.573Z,45.92
2023-01-08T21:06:46.663Z,30.40
2023-01-08T21:11:55.136Z,41.10
2023-01-08T21:17:03.261Z,40.60
2023-01-08T21:22:12.351Z,36.85
2023-01-08T21:32:27.323Z,37.90
2023-01-08T21:37:37.452Z,36.80
2023-01-08T21:43:01.588Z,39.00
2023-01-08T21:48:09.176Z,31.95
2023-01-08T21:53:36.581Z,32.05
2023-01-08T21:58:43.383Z,36.55
2023-01-08T22:03:50.224Z,35.97
2023-01-08T22:08:58.816Z,33.80
2023-01-08T22:14:07.301Z,28.65
2023-01-08T22:19:19.577Z,36.25
2023-01-08T22:24:27.979Z,24.67
2023-01-08T22:29:35.912Z,30.55
2023-01-08T22:34:47.546Z,30.27
2023-01-08T22:39:55.946Z,33.97
2023-01-08T22:45:02.589Z,30.35
2023-01-08T22:50:11.167Z,35.83
2023-01-08T22:55:19.647Z,37.10
2023-01-08T23:00:26.396Z,33.78
2023-01-08T23:05:33.016Z,35.55
2023-01-08T23:10:42.773Z,36.58
2023-01-08T23:15:49.669Z,35.60
2023-01-08T23:21:02.298Z,47.33
2023-01-08T23:26:14.569Z,30.15
2023-01-08T23:31:23.959Z,32.58
2023-01-08T23:36:30.501Z,40.65
2023-01-08T23:41:40.591Z,35.05
2023-01-08T23:46:47.523Z,32.30
2023-01-08T23:51:55.615Z,38.85
2023-01-08T23:57:06.437Z,35.65
